createdAt,value
2023-05-14T00:02:18.147Z,101603.88
2023-05-14T00:04:46.624Z,101608.03
2023-05-14T00:07:13.781Z,101608.25
2023-05-14T00:09:40.888Z,101605.22
2023-05-14T00:12:08.608Z,101597.84
2023-05-14T00:14:35.733Z,101598.91
2023-05-14T00:17:02.992Z,101603.69
2023-05-14T00:19:29.968Z,101597.16
2023-05-14T00:21:57.283Z,101598.19
2023-05-14T00:24:24.982Z,101599.03
2023-05-14T00:26:52.119Z,101598.19
2023-05-14T00:29:21.418Z,101603.00
2023-05-14T00:31:48.610Z,101594.94
2023-05-14T00:34:15.611Z,101583.59
2023-05-14T00:36:42.562Z,101597.25
2023-05-14T00:39:09.807Z,101593.06
2023-05-14T00:41:36.808Z,101592.25
2023-05-14T00:44:04.391Z,101582.78
2023-05-14T00:46:31.619Z,101594.69
2023-05-14T00:48:59.601Z,101579.28
2023-05-14T00:51:27.246Z,101590.59
2023-05-14T00:53:55.516Z,101577.41
2023-05-14T00:56:23.163Z,101569.56
2023-05-14T00:58:50.595Z,101578.00
2023-05-14T01:01:18.110Z,101577.06
2023-05-14T01:03:45.902Z,101574.59
2023-05-14T01:06:24.411Z,101567.59
2023-05-14T01:09:23.436Z,101579.38
2023-05-14T01:12:28.916Z,101581.09
2023-05-14T01:15:16.555Z,101572.69
2023-05-14T01:17:51.187Z,101566.59
2023-05-14T01:20:18.291Z,101582.94
2023-05-14T01:22:45.401Z,101581.16
2023-05-14T01:25:12.499Z,101576.84
2023-05-14T01:28:13.567Z,101574.41
2023-05-14T01:30:58.325Z,101576.72
2023-05-14T01:33:28.269Z,101568.78
2023-05-14T01:35:56.060Z,101566.31
2023-05-14T01:38:24.412Z,101578.69
2023-05-14T01:40:52.693Z,101574.59
2023-05-14T01:43:20.429Z,101558.94
2023-05-14T01:45:47.601Z,101565.25
2023-05-14T01:48:15.445Z,101560.13
2023-05-14T01:50:42.710Z,101565.63
2023-05-14T01:53:09.708Z,101552.19
2023-05-14T01:55:36.970Z,101557.69
2023-05-14T01:58:04.634Z,101560.75
2023-05-14T02:00:32.042Z,101557.81
2023-05-14T02:02:59.429Z,101552.81
2023-05-14T02:05:26.631Z,101555.03
2023-05-14T02:07:54.920Z,101558.06
2023-05-14T02:10:22.045Z,101559.25
2023-05-14T02:12:49.944Z,101551.19
2023-05-14T02:15:17.430Z,101546.56
2023-05-14T02:17:44.686Z,101540.34
2023-05-14T02:20:13.014Z,101539.91
2023-05-14T02:22:45.401Z,101547.84
2023-05-14T02:25:12.461Z,101551.34
2023-05-14T02:27:39.597Z,101543.41
2023-05-14T02:30:07.560Z,101545.88
2023-05-14T02:32:34.808Z,101547.84
2023-05-14T02:35:02.362Z,101552.53
2023-05-14T02:37:29.247Z,101543.06
2023-05-14T02:39:56.568Z,101547.75
2023-05-14T02:42:23.841Z,101547.28
2023-05-14T02:44:52.572Z,101546.00
2023-05-14T02:47:19.797Z,101556.06
2023-05-14T02:49:46.991Z,101543.44
2023-05-14T02:52:14.048Z,101542.75
2023-05-14T02:54:41.479Z,101540.63
2023-05-14T02:57:08.732Z,101536.41
2023-05-14T02:59:36.191Z,101545.66
2023-05-14T03:02:03.952Z,101545.19
2023-05-14T03:04:31.545Z,101548.22
2023-05-14T03:06:58.781Z,101539.31
2023-05-14T03:09:26.000Z,101537.81
2023-05-14T03:11:53.074Z,101542.72
2023-05-14T03:14:20.093Z,101544.09
2023-05-14T03:16:47.159Z,101545.75
2023-05-14T03:19:14.390Z,101549.84
2023-05-14T03:21:41.707Z,101553.09
2023-05-14T03:24:09.158Z,101543.97
2023-05-14T03:26:37.347Z,101553.44
2023-05-14T03:29:04.466Z,101530.53
2023-05-14T03:31:31.613Z,101542.22
2023-05-14T03:33:58.716Z,101551.91
2023-05-14T03:36:25.792Z,101532.50
2023-05-14T03:38:52.993Z,101548.50
2023-05-14T03:41:20.027Z,101522.00
2023-05-14T03:43:47.073Z,101541.25
2023-05-14T03:46:14.132Z,101543.13
2023-05-14T03:48:41.195Z,101536.69
2023-05-14T03:51:08.282Z,101537.50
2023-05-14T03:53:36.543Z,101524.78
2023-05-14T03:56:03.986Z,101528.53
2023-05-14T03:58:31.098Z,101536.94
2023-05-14T04:01:00.644Z,101545.47
2023-05-14T04:03:27.875Z,101533.56
2023-05-14T04:05:55.012Z,101542.56
2023-05-14T04:08:22.016Z,101541.41
2023-05-14T04:10:50.483Z,101530.63
2023-05-14T04:13:17.535Z,101543.03
2023-05-14T04:15:44.829Z,101526.22
2023-05-14T04:18:12.777Z,101526.91
2023-05-14T04:20:40.487Z,101525.84
2023-05-14T04:23:07.657Z,101524.19
2023-05-14T04:25:34.625Z,101531.22
2023-05-14T04:28:01.985Z,101535.53
2023-05-14T04:30:29.586Z,101517.44
2023-05-14T04:32:57.149Z,101532.28
2023-05-14T04:35:25.250Z,101527.13
2023-05-14T04:37:52.584Z,101515.56
2023-05-14T04:40:19.711Z,101520.94
2023-05-14T04:42:46.951Z,101522.00
2023-05-14T04:45:14.733Z,101525.84
2023-05-14T04:47:41.857Z,101510.28
2023-05-14T04:50:09.745Z,101508.97
2023-05-14T04:52:36.947Z,101502.06
2023-05-14T04:55:04.510Z,101510.25
2023-05-14T04:57:31.871Z,101505.44
2023-05-14T04:59:59.004Z,101503.19
2023-05-14T05:02:26.009Z,101500.84
2023-05-14T05:04:53.232Z,101513.56
2023-05-14T05:07:20.258Z,101505.41
2023-05-14T05:09:47.419Z,101516.84
2023-05-14T05:12:14.355Z,101500.47
2023-05-14T05:14:41.548Z,101508.38
2023-05-14T05:17:08.803Z,101505.53
2023-05-14T05:19:43.701Z,101504.66
2023-05-14T05:22:11.892Z,101505.66
2023-05-14T05:24:38.862Z,101503.94
2023-05-14T05:27:06.078Z,101506.88
2023-05-14T05:29:33.499Z,101507.16
2023-05-14T05:32:00.883Z,101499.09
2023-05-14T05:34:28.068Z,101490.31
2023-05-14T05:36:55.305Z,101493.25
2023-05-14T05:39:22.631Z,101495.63
2023-05-14T05:41:49.987Z,101493.63
2023-05-14T05:44:16.881Z,101491.63
2023-05-14T05:46:43.922Z,101484.44
2023-05-14T05:49:10.929Z,101489.50
2023-05-14T05:51:38.221Z,101481.59
2023-05-14T05:54:05.353Z,101480.63
2023-05-14T05:56:32.640Z,101482.41
2023-05-14T05:59:00.772Z,101481.72
2023-05-14T06:01:27.982Z,101486.53
2023-05-14T06:03:55.093Z,101490.16
2023-05-14T06:06:22.146Z,101498.41
2023-05-14T06:08:49.340Z,101486.03
2023-05-14T06:11:17.245Z,101490.47
2023-05-14T06:13:44.457Z,101484.03
2023-05-14T06:16:11.582Z,101478.22
2023-05-14T06:18:38.578Z,101482.88
2023-05-14T06:21:05.510Z,101481.84
2023-05-14T06:23:33.385Z,101480.28
2023-05-14T06:26:00.774Z,101483.00
2023-05-14T06:28:27.922Z,101487.66
2023-05-14T06:30:56.124Z,101473.06
2023-05-14T06:33:35.777Z,101454.66
2023-05-14T06:36:10.552Z,101476.09
2023-05-14T06:38:51.506Z,101477.47
2023-05-14T06:41:18.819Z,101468.81
2023-05-14T06:43:57.452Z,101458.50
2023-05-14T06:46:33.711Z,101471.53
2023-05-14T06:49:16.763Z,101456.31
2023-05-14T06:51:53.850Z,101464.69
2023-05-14T06:55:08.751Z,101461.41
2023-05-14T06:57:42.386Z,101470.34
2023-05-14T07:00:10.161Z,101466.53
2023-05-14T07:02:37.552Z,101470.81
2023-05-14T07:05:05.178Z,101470.19
2023-05-14T07:07:32.350Z,101469.03
2023-05-14T07:09:59.638Z,101454.00
2023-05-14T07:12:27.415Z,101458.53
2023-05-14T07:14:54.336Z,101451.84
2023-05-14T07:17:21.580Z,101454.69
2023-05-14T07:19:49.037Z,101451.03
2023-05-14T07:22:16.708Z,101451.63
2023-05-14T07:24:45.399Z,101451.91
2023-05-14T07:27:12.464Z,101436.19
2023-05-14T07:29:48.092Z,101438.31
2023-05-14T07:32:17.042Z,101437.16
2023-05-14T07:34:46.350Z,101439.50
2023-05-14T07:37:13.461Z,101424.00
2023-05-14T07:39:41.668Z,101424.25
2023-05-14T07:42:09.106Z,101430.59
2023-05-14T07:44:36.049Z,101430.44
2023-05-14T07:47:04.224Z,101421.28
2023-05-14T07:49:31.704Z,101419.25
2023-05-14T07:52:06.678Z,101398.81
2023-05-14T07:54:36.868Z,101410.13
2023-05-14T07:57:04.607Z,101402.63
2023-05-14T07:59:32.130Z,101404.06
2023-05-14T08:01:59.469Z,101405.53
2023-05-14T08:04:26.994Z,101398.44
2023-05-14T08:07:02.931Z,101388.22
2023-05-14T08:09:30.351Z,101390.91
2023-05-14T08:11:57.868Z,101385.03
2023-05-14T08:14:27.797Z,101372.25
2023-05-14T08:16:55.365Z,101378.59
2023-05-14T08:19:24.736Z,101372.25
2023-05-14T08:21:54.653Z,101385.50
2023-05-14T08:24:21.854Z,101365.50
2023-05-14T08:26:49.137Z,101373.25
2023-05-14T08:29:16.862Z,101363.88
2023-05-14T08:32:19.364Z,101382.13
2023-05-14T08:34:50.900Z,101361.63
2023-05-14T08:37:19.334Z,101358.69
2023-05-14T08:39:46.551Z,101374.16
2023-05-14T08:42:18.256Z,101372.28
2023-05-14T08:45:12.973Z,101366.06
2023-05-14T08:51:44.819Z,101345.78
2023-05-14T08:54:18.968Z,101340.88
2023-05-14T08:56:53.716Z,101347.53
2023-05-14T08:59:21.115Z,101348.31
2023-05-14T09:02:18.046Z,101327.31
2023-05-14T09:04:45.622Z,101333.53
2023-05-14T09:07:21.513Z,101338.53
2023-05-14T09:09:54.226Z,101324.38
2023-05-14T09:12:29.156Z,101311.84
2023-05-14T09:14:56.306Z,101321.00
2023-05-14T09:17:27.655Z,101316.38
2023-05-14T09:19:55.248Z,101318.47
2023-05-14T09:22:22.619Z,101301.31
2023-05-14T09:25:12.082Z,101304.63
2023-05-14T09:27:39.661Z,101295.69
2023-05-14T09:30:14.630Z,101289.44
2023-05-14T09:32:46.138Z,101281.59
2023-05-14T09:35:41.365Z,101288.84
2023-05-14T09:38:08.641Z,101279.00
2023-05-14T09:40:39.549Z,101274.97
2023-05-14T09:43:12.828Z,101270.41
2023-05-14T09:45:47.970Z,101269.84
2023-05-14T09:48:24.514Z,101266.75
2023-05-14T09:50:52.449Z,101254.88
2023-05-14T09:53:19.764Z,101265.38
2023-05-14T09:55:47.286Z,101259.88
2023-05-14T09:58:16.799Z,101252.72
2023-05-14T10:03:30.992Z,101252.72
2023-05-14T10:06:04.648Z,101236.16
2023-05-14T10:08:36.269Z,101243.69
2023-05-14T10:11:29.697Z,101248.25
2023-05-14T10:14:07.548Z,101262.56
2023-05-14T10:16:45.717Z,101251.41
2023-05-14T10:19:16.053Z,101249.59
2023-05-14T10:22:08.029Z,101249.75
2023-05-14T10:24:35.884Z,101234.56
2023-05-14T10:27:03.365Z,101236.28
2023-05-14T10:29:38.319Z,101223.44
2023-05-14T10:32:10.057Z,101227.84
2023-05-14T10:34:47.266Z,101217.03
2023-05-14T10:37:25.786Z,101219.28
2023-05-14T10:39:54.744Z,101216.75
2023-05-14T10:42:41.484Z,101218.22
2023-05-14T10:45:11.837Z,101224.41
2023-05-14T10:47:51.610Z,101221.00
2023-05-14T10:50:20.564Z,101216.97
2023-05-14T10:52:48.979Z,101215.94
2023-05-14T10:55:19.595Z,101216.84
2023-05-14T10:57:47.396Z,101237.75
2023-05-14T11:00:18.378Z,101233.41
2023-05-14T11:02:45.637Z,101225.19
2023-05-14T11:05:17.096Z,101227.31
2023-05-14T11:07:51.707Z,101229.94
2023-05-14T11:10:22.984Z,101218.72
2023-05-14T11:12:52.206Z,101225.91
2023-05-14T11:15:22.635Z,101218.34
2023-05-14T11:17:51.532Z,101222.88
2023-05-14T11:20:19.400Z,101212.41
2023-05-14T11:22:48.366Z,101216.28
2023-05-14T11:25:15.793Z,101213.53
2023-05-14T11:27:48.275Z,101210.81
2023-05-14T11:30:19.363Z,101206.78
2023-05-14T11:32:48.851Z,101204.97
2023-05-14T11:35:17.902Z,101197.25
2023-05-14T11:37:54.393Z,101197.53
2023-05-14T11:40:22.077Z,101189.81
2023-05-14T11:42:53.695Z,101190.75
2023-05-14T11:45:30.274Z,101200.75
2023-05-14T11:47:57.737Z,101186.19
2023-05-14T11:50:26.371Z,101182.09
2023-05-14T11:52:57.768Z,101185.31
2023-05-14T11:55:24.803Z,101168.53
2023-05-14T11:57:55.770Z,101169.50
2023-05-14T12:00:27.220Z,101166.28
2023-05-14T12:02:57.725Z,101163.78
2023-05-14T12:05:30.135Z,101152.41
2023-05-14T12:07:58.391Z,101150.94
2023-05-14T12:10:25.848Z,101145.69
2023-05-14T12:12:57.587Z,101133.75
2023-05-14T12:15:27.378Z,101136.78
2023-05-14T12:18:24.765Z,101142.41
2023-05-14T12:21:19.990Z,101128.66
2023-05-14T12:23:49.260Z,101128.88
2023-05-14T12:26:25.703Z,101137.66
2023-05-14T12:29:17.049Z,101128.94
2023-05-14T12:34:39.655Z,101128.25
2023-05-14T12:37:15.210Z,101140.72
2023-05-14T12:39:47.091Z,101127.19
2023-05-14T12:42:48.397Z,101126.38
2023-05-14T12:45:20.930Z,101118.63
2023-05-14T12:48:09.668Z,101116.81
2023-05-14T12:51:00.399Z,101120.59
2023-05-14T12:53:27.748Z,101116.81
2023-05-14T12:56:02.959Z,101105.53
2023-05-14T12:58:30.514Z,101109.81
2023-05-14T13:03:44.800Z,101109.03
2023-05-14T13:06:16.386Z,101108.25
2023-05-14T13:08:49.209Z,101112.94
2023-05-14T13:11:18.663Z,101109.38
2023-05-14T13:13:52.478Z,101109.19
2023-05-14T13:16:21.702Z,101094.19
2023-05-14T13:18:49.361Z,101106.41
2023-05-14T13:21:20.091Z,101101.56
2023-05-14T13:23:49.323Z,101089.66
2023-05-14T13:26:21.084Z,101088.69
2023-05-14T13:28:55.018Z,101077.22
2023-05-14T13:31:24.895Z,101071.59
2023-05-14T13:33:54.625Z,101078.34
2023-05-14T13:36:24.578Z,101060.75
2023-05-14T13:38:52.001Z,101065.56
2023-05-14T13:41:19.078Z,101075.69
2023-05-14T13:43:46.695Z,101069.84
2023-05-14T13:46:30.749Z,101058.88
2023-05-14T13:49:06.791Z,101052.41
2023-05-14T13:51:34.536Z,101045.50
2023-05-14T13:54:12.202Z,101068.91
2023-05-14T13:56:44.265Z,101071.19
2023-05-14T13:59:18.305Z,101042.03
2023-05-14T14:01:48.718Z,101039.66
2023-05-14T14:04:36.237Z,101050.81
2023-05-14T14:07:09.459Z,101041.59
2023-05-14T14:09:40.253Z,101062.25
2023-05-14T14:12:13.121Z,101042.13
2023-05-14T14:14:44.282Z,101030.06
2023-05-14T14:17:12.833Z,101016.38
2023-05-14T14:19:47.037Z,101030.72
2023-05-14T14:22:31.347Z,101024.16
2023-05-14T14:25:25.430Z,101006.94
2023-05-14T14:31:29.005Z,101012.03
2023-05-14T14:33:58.698Z,101037.13
2023-05-14T14:36:30.710Z,101005.84
2023-05-14T14:39:05.590Z,101000.16
2023-05-14T14:41:35.906Z,101000.63
2023-05-14T14:44:02.930Z,101006.69
2023-05-14T14:46:33.452Z,100999.41
2023-05-14T14:49:35.906Z,100992.09
2023-05-14T14:52:18.134Z,100975.31
2023-05-14T14:54:48.786Z,100989.88
2023-05-14T14:57:20.711Z,101009.63
2023-05-14T15:00:12.440Z,100990.75
2023-05-14T15:02:44.669Z,100998.84
2023-05-14T15:05:18.201Z,101000.31
2023-05-14T15:07:50.084Z,100991.41
2023-05-14T15:10:17.413Z,100992.56
2023-05-14T15:12:51.937Z,100982.81
2023-05-14T15:15:22.570Z,100986.41
2023-05-14T15:17:51.753Z,100984.38
2023-05-14T15:20:20.669Z,100998.56
2023-05-14T15:22:51.634Z,100976.19
2023-05-14T15:25:27.970Z,100979.78
2023-05-14T15:27:55.195Z,100987.22
2023-05-14T15:30:26.601Z,100980.78
2023-05-14T15:32:56.319Z,100976.63
2023-05-14T15:35:24.055Z,100974.22
2023-05-14T15:37:51.484Z,100963.78
2023-05-14T15:40:19.534Z,100956.81
2023-05-14T15:42:47.493Z,100950.53
2023-05-14T15:45:15.256Z,100967.91
2023-05-14T15:47:42.659Z,100957.94
2023-05-14T15:50:10.602Z,100960.22
2023-05-14T15:52:39.632Z,100971.81
2023-05-14T15:55:13.374Z,100963.59
2023-05-14T15:57:40.526Z,100948.63
2023-05-14T16:00:12.708Z,100949.59
2023-05-14T16:02:40.139Z,100959.56
2023-05-14T16:05:19.429Z,100945.72
2023-05-14T16:07:51.409Z,100953.28
2023-05-14T16:10:21.309Z,100932.16
2023-05-14T16:12:55.214Z,100947.63
2023-05-14T16:15:22.951Z,100946.50
2023-05-14T16:17:50.112Z,100944.88
2023-05-14T16:20:17.251Z,100940.53
2023-05-14T16:22:44.751Z,100938.16
2023-05-14T16:25:12.479Z,100943.47
2023-05-14T16:27:39.578Z,100938.16
2023-05-14T16:30:08.157Z,100937.19
2023-05-14T16:32:35.450Z,100936.41
2023-05-14T16:35:03.286Z,100934.31
2023-05-14T16:37:31.386Z,100932.84
2023-05-14T16:39:59.344Z,100937.53
2023-05-14T16:42:26.511Z,100928.66
2023-05-14T16:44:53.993Z,100924.63
2023-05-14T16:47:21.638Z,100926.06
2023-05-14T16:49:49.393Z,100931.47
2023-05-14T16:52:16.727Z,100933.53
2023-05-14T16:54:43.859Z,100935.44
2023-05-14T16:57:10.968Z,100939.72
2023-05-14T16:59:44.189Z,100934.84
2023-05-14T17:02:11.240Z,100940.44
2023-05-14T17:04:38.796Z,100943.44
2023-05-14T17:07:06.034Z,100937.22
2023-05-14T17:09:33.137Z,100938.31
2023-05-14T17:12:01.297Z,100933.53
2023-05-14T17:14:28.370Z,100947.47
2023-05-14T17:16:55.880Z,100939.06
2023-05-14T17:19:23.051Z,100930.81
2023-05-14T17:21:50.919Z,100936.69
2023-05-14T17:24:18.023Z,100932.91
2023-05-14T17:26:45.375Z,100938.81
2023-05-14T17:29:12.339Z,100933.53
2023-05-14T17:31:39.432Z,100929.72
2023-05-14T17:34:06.856Z,100945.88
2023-05-14T17:36:34.082Z,100927.97
2023-05-14T17:39:01.303Z,100933.03
2023-05-14T17:41:28.467Z,100937.06
2023-05-14T17:43:55.451Z,100943.56
2023-05-14T17:46:22.677Z,100936.16
2023-05-14T17:48:49.797Z,100937.19
2023-05-14T17:51:17.021Z,100924.44
2023-05-14T17:53:43.960Z,100936.44
2023-05-14T17:56:10.940Z,100930.97
2023-05-14T17:58:38.178Z,100935.22
2023-05-14T18:01:06.406Z,100939.22
2023-05-14T18:03:33.827Z,100934.78
2023-05-14T18:06:00.944Z,100940.66
2023-05-14T18:08:30.508Z,100938.91
2023-05-14T18:11:00.281Z,100941.47
2023-05-14T18:13:27.870Z,100941.94
2023-05-14T18:15:56.702Z,100948.06
2023-05-14T18:18:24.733Z,100950.63
2023-05-14T18:20:52.754Z,100950.50
2023-05-14T18:23:20.057Z,100951.16
2023-05-14T18:25:48.068Z,100952.06
2023-05-14T18:28:16.001Z,100953.53
2023-05-14T18:30:45.779Z,100942.31
2023-05-14T18:33:13.392Z,100952.44
2023-05-14T18:35:43.830Z,100962.28
2023-05-14T18:38:12.715Z,100955.38
2023-05-14T18:40:40.053Z,100953.59
2023-05-14T18:43:07.680Z,100954.81
2023-05-14T18:45:34.786Z,100954.09
2023-05-14T18:48:01.857Z,100950.97
2023-05-14T18:50:30.649Z,100951.34
2023-05-14T18:52:57.741Z,100957.97
2023-05-14T18:55:25.124Z,100955.38
2023-05-14T18:57:52.356Z,100964.38
2023-05-14T19:00:19.794Z,100960.38
2023-05-14T19:02:46.811Z,100959.66
2023-05-14T19:05:15.594Z,100967.00
2023-05-14T19:07:43.694Z,100959.50
2023-05-14T19:10:11.197Z,100973.38
2023-05-14T19:12:38.260Z,100971.53
2023-05-14T19:15:06.580Z,100971.59
2023-05-14T19:17:33.935Z,100965.94
2023-05-14T19:20:01.094Z,100965.47
2023-05-14T19:22:28.065Z,100972.00
2023-05-14T19:24:55.092Z,100960.69
2023-05-14T19:27:24.069Z,100968.88
2023-05-14T19:29:51.036Z,100971.03
2023-05-14T19:32:18.356Z,100969.44
2023-05-14T19:34:45.416Z,100962.44
2023-05-14T19:37:12.672Z,100946.00
2023-05-14T19:39:39.911Z,100962.50
2023-05-14T19:42:06.889Z,100956.00
2023-05-14T19:44:34.071Z,100948.72
2023-05-14T19:47:02.147Z,100957.13
2023-05-14T19:49:29.048Z,100949.84
2023-05-14T19:51:56.109Z,100945.53
2023-05-14T19:54:23.251Z,100946.84
2023-05-14T19:56:50.438Z,100946.31
2023-05-14T19:59:17.495Z,100952.28
2023-05-14T20:01:44.489Z,100949.31
2023-05-14T20:04:11.689Z,100947.97
2023-05-14T20:06:40.191Z,100943.59
2023-05-14T20:09:07.544Z,100950.63
2023-05-14T20:11:35.715Z,100943.88
2023-05-14T20:14:02.812Z,100945.47
2023-05-14T20:16:29.920Z,100943.84
2023-05-14T20:18:57.093Z,100950.03
2023-05-14T20:21:41.436Z,100948.97
2023-05-14T20:28:20.670Z,100945.09
2023-05-14T20:34:17.366Z,100935.88
2023-05-14T20:37:07.154Z,100919.88
2023-05-14T20:42:59.238Z,100922.78
2023-05-14T20:45:39.450Z,100914.69
2023-05-14T20:48:32.249Z,100915.22
2023-05-14T20:51:12.776Z,100907.88
2023-05-14T20:53:51.981Z,100903.53
2023-05-14T20:56:34.175Z,100910.25
2023-05-14T20:59:08.831Z,100913.78
2023-05-14T21:01:35.910Z,100915.09
2023-05-14T21:04:03.297Z,100906.16
2023-05-14T21:06:30.473Z,100909.13
2023-05-14T21:08:57.424Z,100905.00
2023-05-14T21:11:25.535Z,100908.22
2023-05-14T21:13:52.815Z,100895.22
2023-05-14T21:16:20.248Z,100900.63
2023-05-14T21:18:54.991Z,100898.13
2023-05-14T21:21:28.113Z,100897.84
2023-05-14T21:24:19.076Z,100864.56
2023-05-14T21:29:34.998Z,100876.94
2023-05-14T21:32:26.149Z,100879.88
2023-05-14T21:35:05.421Z,100884.44
2023-05-14T21:38:05.729Z,100888.47
2023-05-14T21:40:40.464Z,100883.06
2023-05-14T21:43:21.331Z,100874.63
2023-05-14T21:46:19.108Z,100865.41
2023-05-14T21:49:09.192Z,100861.91
2023-05-14T21:51:38.978Z,100872.13
2023-05-14T22:00:27.565Z,100880.88
2023-05-14T22:03:11.594Z,100864.88
2023-05-14T22:05:49.263Z,100870.34
2023-05-14T22:08:41.146Z,100857.88
2023-05-14T22:11:16.215Z,100851.84
2023-05-14T22:13:44.733Z,100860.78
2023-05-14T22:16:14.062Z,100870.47
2023-05-14T22:18:43.766Z,100856.13
2023-05-14T22:21:10.803Z,100870.94
2023-05-14T22:23:38.186Z,100849.88
2023-05-14T22:26:05.631Z,100862.53
2023-05-14T22:28:32.548Z,100871.41
2023-05-14T22:31:00.548Z,100863.84
2023-05-14T22:33:27.748Z,100864.09
2023-05-14T22:35:54.813Z,100862.97
2023-05-14T22:38:22.130Z,100852.44
2023-05-14T22:40:49.585Z,100862.88
2023-05-14T22:43:16.799Z,100858.00
2023-05-14T22:45:44.488Z,100859.06
2023-05-14T22:48:11.561Z,100858.25
2023-05-14T22:50:38.879Z,100857.69
2023-05-14T22:53:05.786Z,100840.19
2023-05-14T22:55:34.736Z,100840.75
2023-05-14T22:58:02.168Z,100852.84
2023-05-14T23:00:29.287Z,100845.28
2023-05-14T23:02:56.844Z,100839.59
2023-05-14T23:05:24.269Z,100829.13
2023-05-14T23:07:53.381Z,100831.03
2023-05-14T23:10:20.371Z,100832.91
2023-05-14T23:12:47.416Z,100829.13
2023-05-14T23:15:14.735Z,100823.22
2023-05-14T23:17:42.182Z,100818.34
2023-05-14T23:20:13.340Z,100810.03
2023-05-14T23:22:40.960Z,100808.41
2023-05-14T23:25:08.593Z,100795.22
2023-05-14T23:27:35.634Z,100806.50
2023-05-14T23:30:04.221Z,100811.38
2023-05-14T23:32:31.244Z,100804.66
2023-05-14T23:34:58.246Z,100797.34
2023-05-14T23:37:25.443Z,100787.91
2023-05-14T23:39:52.820Z,100787.91
2023-05-14T23:42:20.111Z,100796.22
2023-05-14T23:44:47.195Z,100783.78
2023-05-14T23:47:14.394Z,100789.94
2023-05-14T23:49:41.755Z,100788.81
2023-05-14T23:52:09.064Z,100796.56
2023-05-14T23:54:36.049Z,100784.59
2023-05-14T23:57:04.486Z,100783.50
2023-05-14T23:59:31.609Z,100780.25
